Spellbound — WDF2806 — position and weather

sailwx.info

Track history (hours):
 
Tides and Currents Weather Stations Pressure Air Temp Water Temp Dewpoint Dewpoint Depression Visibility Wind Speed Wind Dir Waves Ship Positions

Spellbound

More information available from US FCC via Universal Licensing System and Coast Guard Vessel Documentation Center.

Last reported at 2014-May-15 22:21 UTC. Time now 2014-Jul-28 12:24 UTC.
Position N 41°26' W 070°58'.
Warning: this ship's position is months out of date.

Type: Pleasure craft. MMSI: 367432110.

Date/timePositionNaut miles runAvg speedWind from/ knotsBaromVisibWave heightAir tempDewpointWater temp
2014-May-15 22:21N 41°26' W 070°58'5 6.5
2014-May-15 21:33N 41°24' W 071°04'7 6.8
2014-May-15 20:33N 41°20' W 071°12'7 7.5
2014-May-15 19:34N 41°15' W 071°19'7 7.4
2014-May-15 18:33N 41°09' W 071°26'6 6.1
2014-May-15 17:33N 41°05' W 071°31'7 6.6
2014-May-15 16:33N 41°01' W 071°38'6 6.5
2014-May-15 15:33N 40°57' W 071°45'7 6.9
2014-May-15 14:33N 40°53' W 071°52'7 7.1
2014-May-15 13:33N 40°48' W 071°59'7 6.5
2014-May-15 12:33N 40°44' W 072°06'7 6.9
2014-May-15 11:32N 40°40' W 072°13'7 7.1
2014-May-15 10:33N 40°35' W 072°20'7 7.1
2014-May-15 09:34N 40°30' W 072°27'22 5.0
2014-May-15 05:11N 40°21' W 072°53'4 4.8
2014-May-15 04:25N 40°19' W 072°56'9 4.5
2014-May-15 02:20N 40°27' W 073°03'7 6.4
2014-May-15 01:17N 40°32' W 073°08'2 3.0
2014-May-15 00:34N 40°31' W 073°10'7 6.4
2014-May-14 23:28N 40°24' W 073°13'8 6.4
2014-May-14 22:11N 40°31' W 073°20'3 5.0
2014-May-14 21:33N 40°33' W 073°22'7 7.0
2014-May-14 20:33N 40°26' W 073°25'3 3.4
2014-May-14 19:32N 40°24' W 073°28'6 5.8
2014-May-14 18:31N 40°29' W 073°33'18 4.5
2014-May-14 14:27N 40°14' W 073°46'23 5.7
2014-May-14 10:24N 39°51' W 073°46'  
Track history (hours):
 
Tides and Currents Weather Stations Pressure Air Temp Water Temp Dewpoint Dewpoint Depression Visibility Wind Speed Wind Dir Waves Ship Positions

Spellbound

More information available from US FCC via Universal Licensing System and Coast Guard Vessel Documentation Center.

Last reported at 2014-May-15 22:21 UTC. Time now 2014-Jul-28 12:24 UTC.
Position N 41°26' W 070°58'.
Warning: this ship's position is months out of date.

Type: Pleasure craft. MMSI: 367432110.

Date/timePositionNaut miles runAvg speedWind from/ knotsBaromVisibWave heightAir tempDewpointWater temp
2014-May-15 22:21N 41°26' W 070°58'5 6.5
2014-May-15 21:33N 41°24' W 071°04'7 6.8
2014-May-15 20:33N 41°20' W 071°12'7 7.5
2014-May-15 19:34N 41°15' W 071°19'7 7.4
2014-May-15 18:33N 41°09' W 071°26'6 6.1
2014-May-15 17:33N 41°05' W 071°31'7 6.6
2014-May-15 16:33N 41°01' W 071°38'6 6.5
2014-May-15 15:33N 40°57' W 071°45'7 6.9
2014-May-15 14:33N 40°53' W 071°52'7 7.1
2014-May-15 13:33N 40°48' W 071°59'7 6.5
2014-May-15 12:33N 40°44' W 072°06'7 6.9
2014-May-15 11:32N 40°40' W 072°13'7 7.1
2014-May-15 10:33N 40°35' W 072°20'7 7.1
2014-May-15 09:34N 40°30' W 072°27'22 5.0
2014-May-15 05:11N 40°21' W 072°53'4 4.8
2014-May-15 04:25N 40°19' W 072°56'9 4.5
2014-May-15 02:20N 40°27' W 073°03'7 6.4
2014-May-15 01:17N 40°32' W 073°08'2 3.0
2014-May-15 00:34N 40°31' W 073°10'7 6.4
2014-May-14 23:28N 40°24' W 073°13'8 6.4
2014-May-14 22:11N 40°31' W 073°20'3 5.0
2014-May-14 21:33N 40°33' W 073°22'7 7.0
2014-May-14 20:33N 40°26' W 073°25'3 3.4
2014-May-14 19:32N 40°24' W 073°28'6 5.8
2014-May-14 18:31N 40°29' W 073°33'18 4.5
2014-May-14 14:27N 40°14' W 073°46'23 5.7
2014-May-14 10:24N 39°51' W 073°46'  

Dump ship's entire track history